57.1°F
Current conditions from King Hill
Updated every 5 minutes
 
  Thursday July 24, 2014

Station Historical Data
Daily Summary for April 15, 2012 Units:  Both    English   Metric
« Previous Day
Next Day »
Daily Weekly Monthly Yearly Custom
  High: Low: Average:
Temperature: 70.8 °F /  21.6 °C 52.7 °F /  11.5 °C 60.7 °F /  15.9 °C
Dew Point: 53.6 °F /  12 °C 28.1 °F /  -2.2 °C 43.1 °F /  6.2 °C
Humidity: 77% 38% 53%
Wind Speed: 11.0mph /  17.7km/h - 4mph /  6.4km/h
Wind Gust: 21.0mph /  33.8km/h - -
Wind- - SW
Pressure: 29.89 in /  1012.1 hPa 29.81 in /  1009.4 hPa -
Precipitation: 0.00 in /  0 mm    
Historical Graphs
 
 
Tabular Data for April 15, 2012
Time Temperature Dew Point Pressure Wind Wind Speed Wind Gust Humidity Daily Rainfall
00:00 53.1 °F /  11.7 °C 28.2 °F /  -2.1 °C 29.89in /  1012.1hPa Calm   4.0mph /  6.4km/h 38% 0.00in /  0mm
00:05 53.3 °F /  11.8 °C 29.0 °F /  -1.7 °C 29.89in /  1012.1hPa Calm   1.0mph /  1.6km/h 39% 0.00in /  0mm
00:10 53.5 °F /  11.9 °C 28.5 °F /  -1.9 °C 29.88in /  1011.7hPa Calm   5.0mph /  8km/h 38% 0.00in /  0mm
00:15 53.4 °F /  11.9 °C 29.7 °F /  -1.3 °C 29.88in /  1011.7hPa SSW 2.0mph /  3.2km/h 5.0mph /  8km/h 40% 0.00in /  0mm
00:20 53.2 °F /  11.8 °C 30.1 °F /  -1.1 °C 29.88in /  1011.7hPa SSW 2.0mph /  3.2km/h 5.0mph /  8km/h 41% 0.00in /  0mm
00:25 53.1 °F /  11.7 °C 29.4 °F /  -1.4 °C 29.89in /  1012.1hPa Calm   4.0mph /  6.4km/h 40% 0.00in /  0mm
00:30 53.1 °F /  11.7 °C 28.2 °F /  -2.1 °C 29.89in /  1012.1hPa Calm   3.0mph /  4.8km/h 38% 0.00in /  0mm
00:40 53.1 °F /  11.7 °C 28.8 °F /  -1.8 °C 29.88in /  1011.7hPa Calm   1.0mph /  1.6km/h 39% 0.00in /  0mm
00:45 53.1 °F /  11.7 °C 28.8 °F /  -1.8 °C 29.88in /  1011.7hPa Calm   3.0mph /  4.8km/h 39% 0.00in /  0mm
00:55 53.0 °F /  11.7 °C 28.1 °F /  -2.2 °C 29.88in /  1011.7hPa SSW 2.0mph /  3.2km/h 6.0mph /  9.7km/h 38% 0.00in /  0mm
01:00 52.9 °F /  11.6 °C 28.6 °F /  -1.9 °C 29.88in /  1011.7hPa SSW 1.0mph /  1.6km/h 6.0mph /  9.7km/h 39% 0.00in /  0mm
01:05 52.9 °F /  11.6 °C 28.6 °F /  -1.9 °C 29.88in /  1011.7hPa SSW 1.0mph /  1.6km/h 5.0mph /  8km/h 39% 0.00in /  0mm
01:10 52.7 °F /  11.5 °C 28.4 °F /  -2 °C 29.87in /  1011.4hPa Calm   5.0mph /  8km/h 39% 0.00in /  0mm
01:15 52.7 °F /  11.5 °C 29.1 °F /  -1.6 °C 29.87in /  1011.4hPa Calm   4.0mph /  6.4km/h 40% 0.00in /  0mm
01:20 52.8 °F /  11.6 °C 29.1 °F /  -1.6 °C 29.88in /  1011.7hPa SSW 1.0mph /  1.6km/h 5.0mph /  8km/h 40% 0.00in /  0mm
01:25 52.9 °F /  11.6 °C 29.8 °F /  -1.2 °C 29.87in /  1011.4hPa SSW 2.0mph /  3.2km/h 5.0mph /  8km/h 41% 0.00in /  0mm
01:30 53.2 °F /  11.8 °C 30.1 °F /  -1.1 °C 29.87in /  1011.4hPa SSW 2.0mph /  3.2km/h 7.0mph /  11.3km/h 41% 0.00in /  0mm
01:40 53.4 °F /  11.9 °C 30.3 °F /  -0.9 °C 29.87in /  1011.4hPa SSW 1.0mph /  1.6km/h 5.0mph /  8km/h 41% 0.00in /  0mm
01:50 53.6 °F /  12 °C 30.5 °F /  -0.8 °C 29.87in /  1011.4hPa SSW 1.0mph /  1.6km/h 4.0mph /  6.4km/h 41% 0.00in /  0mm
01:55 53.3 °F /  11.8 °C 30.2 °F /  -1 °C 29.86in /  1011.1hPa Calm   4.0mph /  6.4km/h 41% 0.00in /  0mm
02:00 53.3 °F /  11.8 °C 30.8 °F /  -0.7 °C 29.86in /  1011.1hPa Calm   4.0mph /  6.4km/h 42% 0.00in /  0mm
02:05 53.3 °F /  11.8 °C 30.8 °F /  -0.7 °C 29.86in /  1011.1hPa Calm   3.0mph /  4.8km/h 42% 0.00in /  0mm
02:10 53.2 °F /  11.8 °C 30.7 °F /  -0.7 °C 29.86in /  1011.1hPa Calm   3.0mph /  4.8km/h 42% 0.00in /  0mm
02:15 53.3 °F /  11.8 °C 31.4 °F /  -0.3 °C 29.86in /  1011.1hPa Calm   4.0mph /  6.4km/h 43% 0.00in /  0mm
02:20 53.5 °F /  11.9 °C 31.6 °F /  -0.2 °C 29.86in /  1011.1hPa Calm   4.0mph /  6.4km/h 43% 0.00in /  0mm
02:25 53.7 °F /  12.1 °C 31.7 °F /  -0.2 °C 29.85in /  1010.7hPa Calm   4.0mph /  6.4km/h 43% 0.00in /  0mm
02:35 54.1 °F /  12.3 °C 32.1 °F /  0.1 °C 29.85in /  1010.7hPa SW 1.0mph /  1.6km/h 6.0mph /  9.7km/h 43% 0.00in /  0mm
02:40 54.3 °F /  12.4 °C 31.7 °F /  -0.2 °C 29.85in /  1010.7hPa Calm   6.0mph /  9.7km/h 42% 0.00in /  0mm
02:45 54.2 °F /  12.3 °C 31.6 °F /  -0.2 °C 29.85in /  1010.7hPa Calm   5.0mph /  8km/h 42% 0.00in /  0mm
02:50 54.1 °F /  12.3 °C 31.5 °F /  -0.3 °C 29.85in /  1010.7hPa Calm   5.0mph /  8km/h 42% 0.00in /  0mm
03:00 53.9 °F /  12.2 °C 31.9 °F /  -0.1 °C 29.85in /  1010.7hPa Calm   4.0mph /  6.4km/h 43% 0.00in /  0mm
03:05 54.0 °F /  12.2 °C 32.0 °F /  0 °C 29.85in /  1010.7hPa SW 1.0mph /  1.6km/h 4.0mph /  6.4km/h 43% 0.00in /  0mm
03:10 54.3 °F /  12.4 °C 32.3 °F /  0.2 °C 29.86in /  1011.1hPa SW 1.0mph /  1.6km/h 4.0mph /  6.4km/h 43% 0.00in /  0mm
03:15 54.5 °F /  12.5 °C 31.9 °F /  -0.1 °C 29.85in /  1010.7hPa Calm   3.0mph /  4.8km/h 42% 0.00in /  0mm
03:20 54.9 °F /  12.7 °C 32.2 °F /  0.1 °C 29.85in /  1010.7hPa Calm   4.0mph /  6.4km/h 42% 0.00in /  0mm
03:25 55.1 °F /  12.8 °C 31.8 °F /  -0.1 °C 29.85in /  1010.7hPa SW 1.0mph /  1.6km/h 5.0mph /  8km/h 41% 0.00in /  0mm
03:30 55.3 °F /  12.9 °C 32.0 °F /  0 °C 29.85in /  1010.7hPa Calm   5.0mph /  8km/h 41% 0.00in /  0mm
03:35 55.4 °F /  13 °C 31.5 °F /  -0.3 °C 29.85in /  1010.7hPa Calm   4.0mph /  6.4km/h 40% 0.00in /  0mm
03:45 55.2 °F /  12.9 °C 31.9 °F /  -0.1 °C 29.85in /  1010.7hPa Calm   5.0mph /  8km/h 41% 0.00in /  0mm
03:55 55.5 °F /  13.1 °C 32.2 °F /  0.1 °C 29.85in /  1010.7hPa SW 2.0mph /  3.2km/h 6.0mph /  9.7km/h 41% 0.00in /  0mm
04:00 55.7 °F /  13.2 °C 31.8 °F /  -0.1 °C 29.85in /  1010.7hPa SW 3.0mph /  4.8km/h 7.0mph /  11.3km/h 40% 0.00in /  0mm
04:05 55.9 °F /  13.3 °C 32.5 °F /  0.3 °C 29.85in /  1010.7hPa SW 1.0mph /  1.6km/h 7.0mph /  11.3km/h 41% 0.00in /  0mm
04:10 55.8 °F /  13.2 °C 31.8 °F /  -0.1 °C 29.85in /  1010.7hPa Calm   5.0mph /  8km/h 40% 0.00in /  0mm
04:15 55.8 °F /  13.2 °C 32.5 °F /  0.3 °C 29.85in /  1010.7hPa Calm   5.0mph /  8km/h 41% 0.00in /  0mm
04:20 55.8 °F /  13.2 °C 31.8 °F /  -0.1 °C 29.85in /  1010.7hPa SW 1.0mph /  1.6km/h 5.0mph /  8km/h 40% 0.00in /  0mm
04:25 55.8 °F /  13.2 °C 32.5 °F /  0.3 °C 29.85in /  1010.7hPa WSW 1.0mph /  1.6km/h 7.0mph /  11.3km/h 41% 0.00in /  0mm
04:30 55.7 °F /  13.2 °C 31.8 °F /  -0.1 °C 29.85in /  1010.7hPa WSW 1.0mph /  1.6km/h 7.0mph /  11.3km/h 40% 0.00in /  0mm
04:40 55.6 °F /  13.1 °C 32.3 °F /  0.2 °C 29.85in /  1010.7hPa SSW 4.0mph /  6.4km/h 8.0mph /  12.9km/h 41% 0.00in /  0mm
04:45 55.4 °F /  13 °C 32.7 °F /  0.4 °C 29.85in /  1010.7hPa SSW 1.0mph /  1.6km/h 8.0mph /  12.9km/h 42% 0.00in /  0mm
04:50 55.3 °F /  12.9 °C 32.6 °F /  0.3 °C 29.85in /  1010.7hPa SW 1.0mph /  1.6km/h 7.0mph /  11.3km/h 42% 0.00in /  0mm
05:00 55.0 °F /  12.8 °C 32.9 °F /  0.5 °C 29.85in /  1010.7hPa Calm   7.0mph /  11.3km/h 43% 0.00in /  0mm
05:05 54.7 °F /  12.6 °C 32.6 °F /  0.3 °C 29.85in /  1010.7hPa SSW 2.0mph /  3.2km/h 7.0mph /  11.3km/h 43% 0.00in /  0mm
05:10 54.6 °F /  12.6 °C 33.1 °F /  0.6 °C 29.85in /  1010.7hPa SSW 1.0mph /  1.6km/h 6.0mph /  9.7km/h 44% 0.00in /  0mm
05:15 54.5 °F /  12.5 °C 33.0 °F /  0.6 °C 29.85in /  1010.7hPa South 2.0mph /  3.2km/h 6.0mph /  9.7km/h 44% 0.00in /  0mm
05:20 54.4 °F /  12.4 °C 32.9 °F /  0.5 °C 29.85in /  1010.7hPa SSW 3.0mph /  4.8km/h 7.0mph /  11.3km/h 44% 0.00in /  0mm
05:25 54.4 °F /  12.4 °C 33.5 °F /  0.8 °C 29.85in /  1010.7hPa SSW 3.0mph /  4.8km/h 7.0mph /  11.3km/h 45% 0.00in /  0mm
05:30 54.4 °F /  12.4 °C 33.5 °F /  0.8 °C 29.85in /  1010.7hPa SSW 1.0mph /  1.6km/h 7.0mph /  11.3km/h 45% 0.00in /  0mm
05:35 54.2 °F /  12.3 °C 33.3 °F /  0.7 °C 29.85in /  1010.7hPa Calm   8.0mph /  12.9km/h 45% 0.00in /  0mm
05:40 54.1 °F /  12.3 °C 33.8 °F /  1 °C 29.86in /  1011.1hPa Calm   8.0mph /  12.9km/h 46% 0.00in /  0mm
05:50 54.0 °F /  12.2 °C 33.7 °F /  0.9 °C 29.86in /  1011.1hPa Calm   6.0mph /  9.7km/h 46% 0.00in /  0mm
05:55 53.9 °F /  12.2 °C 34.1 °F /  1.2 °C 29.86in /  1011.1hPa Calm   4.0mph /  6.4km/h 47% 0.00in /  0mm
06:05 53.6 °F /  12 °C 34.4 °F /  1.3 °C 29.86in /  1011.1hPa Calm   4.0mph /  6.4km/h 48% 0.00in /  0mm
06:10 53.5 °F /  11.9 °C 34.8 °F /  1.6 °C 29.87in /  1011.4hPa SSW 1.0mph /  1.6km/h 7.0mph /  11.3km/h 49% 0.00in /  0mm
06:15 53.6 °F /  12 °C 34.9 °F /  1.6 °C 29.87in /  1011.4hPa Calm   7.0mph /  11.3km/h 49% 0.00in /  0mm
06:20 53.6 °F /  12 °C 34.9 °F /  1.6 °C 29.87in /  1011.4hPa Calm   3.0mph /  4.8km/h 49% 0.00in /  0mm
06:25 53.6 °F /  12 °C 34.9 °F /  1.6 °C 29.87in /  1011.4hPa Calm   3.0mph /  4.8km/h 49% 0.00in /  0mm
06:30 53.6 °F /  12 °C 34.9 °F /  1.6 °C 29.87in /  1011.4hPa SSW 1.0mph /  1.6km/h 5.0mph /  8km/h 49% 0.00in /  0mm
06:35 53.6 °F /  12 °C 34.9 °F /  1.6 °C 29.87in /  1011.4hPa SSW 1.0mph /  1.6km/h 8.0mph /  12.9km/h 49% 0.00in /  0mm
06:40 53.7 °F /  12.1 °C 35.0 °F /  1.7 °C 29.87in /  1011.4hPa SSW 2.0mph /  3.2km/h 8.0mph /  12.9km/h 49% 0.00in /  0mm
06:45 53.7 °F /  12.1 °C 35.5 °F /  1.9 °C 29.87in /  1011.4hPa SSW 1.0mph /  1.6km/h 5.0mph /  8km/h 50% 0.00in /  0mm
06:50 53.7 °F /  12.1 °C 35.0 °F /  1.7 °C 29.87in /  1011.4hPa SSW 3.0mph /  4.8km/h 6.0mph /  9.7km/h 49% 0.00in /  0mm
06:55 53.7 °F /  12.1 °C 35.5 °F /  1.9 °C 29.87in /  1011.4hPa Calm   6.0mph /  9.7km/h 50% 0.00in /  0mm
07:00 53.8 °F /  12.1 °C 35.6 °F /  2 °C 29.87in /  1011.4hPa SSW 1.0mph /  1.6km/h 6.0mph /  9.7km/h 50% 0.00in /  0mm
07:05 53.8 °F /  12.1 °C 35.6 °F /  2 °C 29.87in /  1011.4hPa Calm   6.0mph /  9.7km/h 50% 0.00in /  0mm
07:10 53.9 °F /  12.2 °C 35.7 °F /  2.1 °C 29.87in /  1011.4hPa SSW 2.0mph /  3.2km/h 6.0mph /  9.7km/h 50% 0.00in /  0mm
07:15 53.9 °F /  12.2 °C 36.2 °F /  2.3 °C 29.87in /  1011.4hPa SSW 1.0mph /  1.6km/h 7.0mph /  11.3km/h 51% 0.00in /  0mm
07:20 53.9 °F /  12.2 °C 36.2 °F /  2.3 °C 29.87in /  1011.4hPa SSW 1.0mph /  1.6km/h 7.0mph /  11.3km/h 51% 0.00in /  0mm
07:25 53.9 °F /  12.2 °C 36.7 °F /  2.6 °C 29.87in /  1011.4hPa SSW 1.0mph /  1.6km/h 4.0mph /  6.4km/h 52% 0.00in /  0mm
07:30 54.0 °F /  12.2 °C 36.8 °F /  2.7 °C 29.87in /  1011.4hPa Calm   6.0mph /  9.7km/h 52% 0.00in /  0mm
07:35 54.3 °F /  12.4 °C 37.1 °F /  2.8 °C 29.87in /  1011.4hPa SW 1.0mph /  1.6km/h 6.0mph /  9.7km/h 52% 0.00in /  0mm
07:40 54.5 °F /  12.5 °C 37.2 °F /  2.9 °C 29.87in /  1011.4hPa SW 2.0mph /  3.2km/h 7.0mph /  11.3km/h 52% 0.00in /  0mm
07:45 54.7 °F /  12.6 °C 37.4 °F /  3 °C 29.87in /  1011.4hPa SW 3.0mph /  4.8km/h 8.0mph /  12.9km/h 52% 0.00in /  0mm
07:55 55.1 °F /  12.8 °C 37.8 °F /  3.2 °C 29.88in /  1011.7hPa SSW 4.0mph /  6.4km/h 8.0mph /  12.9km/h 52% 0.00in /  0mm
08:05 55.6 °F /  13.1 °C 37.8 °F /  3.2 °C 29.88in /  1011.7hPa SW 4.0mph /  6.4km/h 9.0mph /  14.5km/h 51% 0.00in /  0mm
08:10 55.8 °F /  13.2 °C 38.0 °F /  3.3 °C 29.88in /  1011.7hPa SSW 5.0mph /  8km/h 10.0mph /  16.1km/h 51% 0.00in /  0mm
08:15 55.8 °F /  13.2 °C 38.4 °F /  3.6 °C 29.88in /  1011.7hPa SSW 5.0mph /  8km/h 10.0mph /  16.1km/h 52% 0.00in /  0mm
08:20 55.9 °F /  13.3 °C 38.5 °F /  3.6 °C 29.88in /  1011.7hPa SW 5.0mph /  8km/h 10.0mph /  16.1km/h 52% 0.00in /  0mm
08:25 56.0 °F /  13.3 °C 39.1 °F /  3.9 °C 29.88in /  1011.7hPa SW 3.0mph /  4.8km/h 10.0mph /  16.1km/h 53% 0.00in /  0mm
08:30 56.1 °F /  13.4 °C 38.7 °F /  3.7 °C 29.88in /  1011.7hPa SSW 3.0mph /  4.8km/h 9.0mph /  14.5km/h 52% 0.00in /  0mm
08:35 56.1 °F /  13.4 °C 39.2 °F /  4 °C 29.88in /  1011.7hPa SSW 2.0mph /  3.2km/h 9.0mph /  14.5km/h 53% 0.00in /  0mm
08:40 56.3 °F /  13.5 °C 39.4 °F /  4.1 °C 29.88in /  1011.7hPa SSW 2.0mph /  3.2km/h 10.0mph /  16.1km/h 53% 0.00in /  0mm
08:45 56.4 °F /  13.6 °C 40.0 °F /  4.4 °C 29.88in /  1011.7hPa SSW 3.0mph /  4.8km/h 11.0mph /  17.7km/h 54% 0.00in /  0mm
08:50 56.5 °F /  13.6 °C 40.5 °F /  4.7 °C 29.88in /  1011.7hPa SSW 5.0mph /  8km/h 11.0mph /  17.7km/h 55% 0.00in /  0mm
09:00 56.8 °F /  13.8 °C 40.3 °F /  4.6 °C 29.88in /  1011.7hPa SSW 4.0mph /  6.4km/h 13.0mph /  20.9km/h 54% 0.00in /  0mm
09:05 56.8 °F /  13.8 °C 40.8 °F /  4.9 °C 29.89in /  1012.1hPa SSW 6.0mph /  9.7km/h 12.0mph /  19.3km/h 55% 0.00in /  0mm
09:10 56.8 °F /  13.8 °C 40.8 °F /  4.9 °C 29.89in /  1012.1hPa SSW 4.0mph /  6.4km/h 12.0mph /  19.3km/h 55% 0.00in /  0mm
09:15 57.0 °F /  13.9 °C 41.0 °F /  5 °C 29.88in /  1011.7hPa SSW 7.0mph /  11.3km/h 12.0mph /  19.3km/h 55% 0.00in /  0mm
09:20 57.3 °F /  14.1 °C 41.7 °F /  5.4 °C 29.88in /  1011.7hPa SW 4.0mph /  6.4km/h 12.0mph /  19.3km/h 56% 0.00in /  0mm
09:25 57.7 °F /  14.3 °C 42.1 °F /  5.6 °C 29.88in /  1011.7hPa SSW 5.0mph /  8km/h 11.0mph /  17.7km/h 56% 0.00in /  0mm
09:35 58.6 °F /  14.8 °C 43.0 °F /  6.1 °C 29.89in /  1012.1hPa SSW 3.0mph /  4.8km/h 9.0mph /  14.5km/h 56% 0.00in /  0mm
09:40 59.0 °F /  15 °C 42.9 °F /  6.1 °C 29.89in /  1012.1hPa SSW 5.0mph /  8km/h 10.0mph /  16.1km/h 55% 0.00in /  0mm
09:45 59.3 °F /  15.2 °C 43.1 °F /  6.2 °C 29.89in /  1012.1hPa SW 3.0mph /  4.8km/h 11.0mph /  17.7km/h 55% 0.00in /  0mm
09:50 59.6 °F /  15.3 °C 43.4 °F /  6.3 °C 29.89in /  1012.1hPa South 2.0mph /  3.2km/h 11.0mph /  17.7km/h 55% 0.00in /  0mm
10:00 61.6 °F /  16.4 °C 44.3 °F /  6.8 °C 29.89in /  1012.1hPa South 5.0mph /  8km/h 10.0mph /  16.1km/h 53% 0.00in /  0mm
10:05 62.1 °F /  16.7 °C 44.3 °F /  6.8 °C 29.88in /  1011.7hPa SSW 7.0mph /  11.3km/h 11.0mph /  17.7km/h 52% 0.00in /  0mm
10:10 62.3 °F /  16.8 °C 45.0 °F /  7.2 °C 29.88in /  1011.7hPa South 3.0mph /  4.8km/h 11.0mph /  17.7km/h 53% 0.00in /  0mm
10:15 63.1 °F /  17.3 °C 45.2 °F /  7.3 °C 29.87in /  1011.4hPa SSW 5.0mph /  8km/h 11.0mph /  17.7km/h 52% 0.00in /  0mm
10:20 63.2 °F /  17.3 °C 44.8 °F /  7.1 °C 29.87in /  1011.4hPa SSW 6.0mph /  9.7km/h 11.0mph /  17.7km/h 51% 0.00in /  0mm
10:25 63.3 °F /  17.4 °C 45.9 °F /  7.7 °C 29.86in /  1011.1hPa SSW 4.0mph /  6.4km/h 11.0mph /  17.7km/h 53% 0.00in /  0mm
10:35 64.1 °F /  17.8 °C 46.1 °F /  7.8 °C 29.86in /  1011.1hPa SW 4.0mph /  6.4km/h 12.0mph /  19.3km/h 52% 0.00in /  0mm
10:40 64.0 °F /  17.8 °C 45.5 °F /  7.5 °C 29.86in /  1011.1hPa SSW 7.0mph /  11.3km/h 12.0mph /  19.3km/h 51% 0.00in /  0mm
10:45 64.0 °F /  17.8 °C 46.0 °F /  7.8 °C 29.86in /  1011.1hPa SW 5.0mph /  8km/h 14.0mph /  22.5km/h 52% 0.00in /  0mm
10:55 64.6 °F /  18.1 °C 46.1 °F /  7.8 °C 29.85in /  1010.7hPa WSW 6.0mph /  9.7km/h 15.0mph /  24.1km/h 51% 0.00in /  0mm
11:00 64.4 °F /  18 °C 45.9 °F /  7.7 °C 29.85in /  1010.7hPa SW 8.0mph /  12.9km/h 17.0mph /  27.4km/h 51% 0.00in /  0mm
11:05 64.5 °F /  18.1 °C 46.5 °F /  8.1 °C 29.85in /  1010.7hPa SW 6.0mph /  9.7km/h 17.0mph /  27.4km/h 52% 0.00in /  0mm
11:10 64.7 °F /  18.2 °C 46.7 °F /  8.2 °C 29.84in /  1010.4hPa WSW 4.0mph /  6.4km/h 13.0mph /  20.9km/h 52% 0.00in /  0mm
11:15 65.0 °F /  18.3 °C 47.0 °F /  8.3 °C 29.84in /  1010.4hPa SW 6.0mph /  9.7km/h 13.0mph /  20.9km/h 52% 0.00in /  0mm
11:20 65.8 °F /  18.8 °C 47.7 °F /  8.7 °C 29.85in /  1010.7hPa SW 7.0mph /  11.3km/h 13.0mph /  20.9km/h 52% 0.00in /  0mm
11:25 65.8 °F /  18.8 °C 46.7 °F /  8.2 °C 29.85in /  1010.7hPa SSW 6.0mph /  9.7km/h 13.0mph /  20.9km/h 50% 0.00in /  0mm
11:35 65.9 °F /  18.8 °C 47.3 °F /  8.5 °C 29.84in /  1010.4hPa WSW 2.0mph /  3.2km/h 11.0mph /  17.7km/h 51% 0.00in /  0mm
11:40 66.5 °F /  19.2 °C 46.8 °F /  8.2 °C 29.85in /  1010.7hPa SSW 9.0mph /  14.5km/h 16.0mph /  25.7km/h 49% 0.00in /  0mm
11:50 66.5 °F /  19.2 °C 46.8 °F /  8.2 °C 29.84in /  1010.4hPa WSW 6.0mph /  9.7km/h 15.0mph /  24.1km/h 49% 0.00in /  0mm
11:55 67.2 °F /  19.6 °C 47.9 °F /  8.8 °C 29.84in /  1010.4hPa SSW 6.0mph /  9.7km/h 15.0mph /  24.1km/h 50% 0.00in /  0mm
12:00 66.4 °F /  19.1 °C 46.1 °F /  7.8 °C 29.84in /  1010.4hPa SSW 9.0mph /  14.5km/h 15.0mph /  24.1km/h 48% 0.00in /  0mm
12:05 66.2 °F /  19 °C 47.0 °F /  8.3 °C 29.84in /  1010.4hPa SSW 7.0mph /  11.3km/h 17.0mph /  27.4km/h 50% 0.00in /  0mm
12:10 66.8 °F /  19.3 °C 47.6 °F /  8.7 °C 29.83in /  1010hPa SSW 9.0mph /  14.5km/h 17.0mph /  27.4km/h 50% 0.00in /  0mm
12:15 66.3 °F /  19.1 °C 47.1 °F /  8.4 °C 29.83in /  1010hPa SW 11.0mph /  17.7km/h 18.0mph /  29km/h 50% 0.00in /  0mm
12:20 66.7 °F /  19.3 °C 48.0 °F /  8.9 °C 29.83in /  1010hPa SSW 8.0mph /  12.9km/h 18.0mph /  29km/h 51% 0.00in /  0mm
12:25 66.5 °F /  19.2 °C 47.8 °F /  8.8 °C 29.83in /  1010hPa SSW 9.0mph /  14.5km/h 21.0mph /  33.8km/h 51% 0.00in /  0mm
12:30 66.7 °F /  19.3 °C 48.5 °F /  9.2 °C 29.83in /  1010hPa SSW 10.0mph /  16.1km/h 21.0mph /  33.8km/h 52% 0.00in /  0mm
12:35 66.7 °F /  19.3 °C 48.5 °F /  9.2 °C 29.83in /  1010hPa SSW 8.0mph /  12.9km/h 20.0mph /  32.2km/h 52% 0.00in /  0mm
12:40 67.1 °F /  19.5 °C 48.4 °F /  9.1 °C 29.83in /  1010hPa South 9.0mph /  14.5km/h 20.0mph /  32.2km/h 51% 0.00in /  0mm
12:50 66.9 °F /  19.4 °C 48.7 °F /  9.3 °C 29.82in /  1009.7hPa SSW 7.0mph /  11.3km/h 19.0mph /  30.6km/h 52% 0.00in /  0mm
12:55 66.6 °F /  19.2 °C 47.9 °F /  8.8 °C 29.83in /  1010hPa SSW 8.0mph /  12.9km/h 15.0mph /  24.1km/h 51% 0.00in /  0mm
13:00 67.5 °F /  19.7 °C 49.3 °F /  9.6 °C 29.82in /  1009.7hPa South 7.0mph /  11.3km/h 16.0mph /  25.7km/h 52% 0.00in /  0mm
13:05 68.0 °F /  20 °C 48.7 °F /  9.3 °C 29.82in /  1009.7hPa SSW 9.0mph /  14.5km/h 16.0mph /  25.7km/h 50% 0.00in /  0mm
13:10 67.1 °F /  19.5 °C 48.9 °F /  9.4 °C 29.82in /  1009.7hPa SSW 7.0mph /  11.3km/h 21.0mph /  33.8km/h 52% 0.00in /  0mm
13:15 66.3 °F /  19.1 °C 48.7 °F /  9.3 °C 29.83in /  1010hPa SSW 8.0mph /  12.9km/h 21.0mph /  33.8km/h 53% 0.00in /  0mm
13:20 66.3 °F /  19.1 °C 48.7 °F /  9.3 °C 29.83in /  1010hPa SW 7.0mph /  11.3km/h 19.0mph /  30.6km/h 53% 0.00in /  0mm
13:25 66.6 °F /  19.2 °C 49.0 °F /  9.4 °C 29.82in /  1009.7hPa South 9.0mph /  14.5km/h 21.0mph /  33.8km/h 53% 0.00in /  0mm
13:30 67.6 °F /  19.8 °C 48.8 °F /  9.3 °C 29.82in /  1009.7hPa WSW 6.0mph /  9.7km/h 21.0mph /  33.8km/h 51% 0.00in /  0mm
13:35 68.1 °F /  20.1 °C 49.3 °F /  9.6 °C 29.82in /  1009.7hPa SW 8.0mph /  12.9km/h 18.0mph /  29km/h 51% 0.00in /  0mm
13:40 67.4 °F /  19.7 °C 48.7 °F /  9.3 °C 29.82in /  1009.7hPa SW 8.0mph /  12.9km/h 18.0mph /  29km/h 51% 0.00in /  0mm
13:55 68.6 °F /  20.3 °C 49.8 °F /  9.9 °C 29.82in /  1009.7hPa SW 6.0mph /  9.7km/h 18.0mph /  29km/h 51% 0.00in /  0mm
14:00 69.3 °F /  20.7 °C 49.3 °F /  9.6 °C 29.82in /  1009.7hPa SW 8.0mph /  12.9km/h 14.0mph /  22.5km/h 49% 0.00in /  0mm
14:05 69.7 °F /  20.9 °C 49.7 °F /  9.8 °C 29.82in /  1009.7hPa WSW 6.0mph /  9.7km/h 14.0mph /  22.5km/h 49% 0.00in /  0mm
14:10 69.8 °F /  21 °C 49.8 °F /  9.9 °C 29.83in /  1010hPa South 7.0mph /  11.3km/h 13.0mph /  20.9km/h 49% 0.00in /  0mm
14:15 68.9 °F /  20.5 °C 49.5 °F /  9.7 °C 29.82in /  1009.7hPa SSW 9.0mph /  14.5km/h 17.0mph /  27.4km/h 50% 0.00in /  0mm
14:20 69.2 °F /  20.7 °C 50.3 °F /  10.2 °C 29.82in /  1009.7hPa SSW 10.0mph /  16.1km/h 17.0mph /  27.4km/h 51% 0.00in /  0mm
14:25 70.8 °F /  21.6 °C 51.3 °F /  10.7 °C 29.82in /  1009.7hPa SW 7.0mph /  11.3km/h 17.0mph /  27.4km/h 50% 0.00in /  0mm
14:35 69.6 °F /  20.9 °C 50.2 °F /  10.1 °C 29.82in /  1009.7hPa SSW 6.0mph /  9.7km/h 14.0mph /  22.5km/h 50% 0.00in /  0mm
14:40 70.2 °F /  21.2 °C 50.7 °F /  10.4 °C 29.82in /  1009.7hPa SW 5.0mph /  8km/h 15.0mph /  24.1km/h 50% 0.00in /  0mm
14:55 70.2 °F /  21.2 °C 50.2 °F /  10.1 °C 29.82in /  1009.7hPa SW 9.0mph /  14.5km/h 17.0mph /  27.4km/h 49% 0.00in /  0mm
15:00 70.1 °F /  21.2 °C 50.6 °F /  10.3 °C 29.82in /  1009.7hPa SW 2.0mph /  3.2km/h 17.0mph /  27.4km/h 50% 0.00in /  0mm
15:05 69.7 °F /  20.9 °C 49.7 °F /  9.8 °C 29.82in /  1009.7hPa SSW 9.0mph /  14.5km/h 17.0mph /  27.4km/h 49% 0.00in /  0mm
15:10 68.9 °F /  20.5 °C 49.5 °F /  9.7 °C 29.82in /  1009.7hPa SSW 3.0mph /  4.8km/h 17.0mph /  27.4km/h 50% 0.00in /  0mm
15:15 69.5 °F /  20.8 °C 50.6 °F /  10.3 °C 29.82in /  1009.7hPa West 3.0mph /  4.8km/h 16.0mph /  25.7km/h 51% 0.00in /  0mm
15:20 70.3 °F /  21.3 °C 50.3 °F /  10.2 °C 29.81in /  1009.4hPa WSW 6.0mph /  9.7km/h 13.0mph /  20.9km/h 49% 0.00in /  0mm
15:25 70.4 °F /  21.3 °C 50.9 °F /  10.5 °C 29.82in /  1009.7hPa WSW 7.0mph /  11.3km/h 13.0mph /  20.9km/h 50% 0.00in /  0mm
15:35 70.5 °F /  21.4 °C 51.0 °F /  10.6 °C 29.82in /  1009.7hPa WSW 6.0mph /  9.7km/h 13.0mph /  20.9km/h 50% 0.00in /  0mm
15:40 70.7 °F /  21.5 °C 51.2 °F /  10.7 °C 29.82in /  1009.7hPa WNW 6.0mph /  9.7km/h 13.0mph /  20.9km/h 50% 0.00in /  0mm
15:50 70.5 °F /  21.4 °C 50.4 °F /  10.2 °C 29.82in /  1009.7hPa WSW 6.0mph /  9.7km/h 13.0mph /  20.9km/h 49% 0.00in /  0mm
16:00 69.4 °F /  20.8 °C 51.0 °F /  10.6 °C 29.81in /  1009.4hPa WSW 7.0mph /  11.3km/h 12.0mph /  19.3km/h 52% 0.00in /  0mm
16:05 69.1 °F /  20.6 °C 50.8 °F /  10.4 °C 29.82in /  1009.7hPa WSW 5.0mph /  8km/h 12.0mph /  19.3km/h 52% 0.00in /  0mm
16:10 68.9 °F /  20.5 °C 50.6 °F /  10.3 °C 29.82in /  1009.7hPa SW 5.0mph /  8km/h 11.0mph /  17.7km/h 52% 0.00in /  0mm
16:15 68.7 °F /  20.4 °C 50.4 °F /  10.2 °C 29.82in /  1009.7hPa WSW 8.0mph /  12.9km/h 14.0mph /  22.5km/h 52% 0.00in /  0mm
16:20 68.2 °F /  20.1 °C 50.4 °F /  10.2 °C 29.82in /  1009.7hPa West 9.0mph /  14.5km/h 14.0mph /  22.5km/h 53% 0.00in /  0mm
16:25 67.8 °F /  19.9 °C 50.6 °F /  10.3 °C 29.82in /  1009.7hPa WSW 7.0mph /  11.3km/h 15.0mph /  24.1km/h 54% 0.00in /  0mm
16:35 67.4 °F /  19.7 °C 51.2 °F /  10.7 °C 29.82in /  1009.7hPa SW 6.0mph /  9.7km/h 13.0mph /  20.9km/h 56% 0.00in /  0mm
16:40 67.2 °F /  19.6 °C 51.0 °F /  10.6 °C 29.82in /  1009.7hPa SW 8.0mph /  12.9km/h 14.0mph /  22.5km/h 56% 0.00in /  0mm
16:50 66.4 °F /  19.1 °C 50.7 °F /  10.4 °C 29.82in /  1009.7hPa SW 7.0mph /  11.3km/h 13.0mph /  20.9km/h 57% 0.00in /  0mm
17:00 66.1 °F /  18.9 °C 50.9 °F /  10.5 °C 29.82in /  1009.7hPa SW 6.0mph /  9.7km/h 11.0mph /  17.7km/h 58% 0.00in /  0mm
17:05 66.2 °F /  19 °C 51.5 °F /  10.8 °C 29.82in /  1009.7hPa WSW 3.0mph /  4.8km/h 9.0mph /  14.5km/h 59% 0.00in /  0mm
17:15 67.1 °F /  19.5 °C 51.4 °F /  10.8 °C 29.82in /  1009.7hPa West 2.0mph /  3.2km/h 10.0mph /  16.1km/h 57% 0.00in /  0mm
17:20 67.4 °F /  19.7 °C 51.7 °F /  10.9 °C 29.83in /  1010hPa SSW 4.0mph /  6.4km/h 7.0mph /  11.3km/h 57% 0.00in /  0mm
17:25 67.2 °F /  19.6 °C 51.9 °F /  11.1 °C 29.83in /  1010hPa SSW 5.0mph /  8km/h 9.0mph /  14.5km/h 58% 0.00in /  0mm
17:35 67.1 °F /  19.5 °C 51.8 °F /  11 °C 29.83in /  1010hPa SW 3.0mph /  4.8km/h 9.0mph /  14.5km/h 58% 0.00in /  0mm
17:45 66.9 °F /  19.4 °C 51.7 °F /  10.9 °C 29.83in /  1010hPa WSW 1.0mph /  1.6km/h 10.0mph /  16.1km/h 58% 0.00in /  0mm
17:50 66.8 °F /  19.3 °C 52.0 °F /  11.1 °C 29.83in /  1010hPa WSW 2.0mph /  3.2km/h 8.0mph /  12.9km/h 59% 0.00in /  0mm
17:55 66.7 °F /  19.3 °C 51.5 °F /  10.8 °C 29.83in /  1010hPa WSW 2.0mph /  3.2km/h 9.0mph /  14.5km/h 58% 0.00in /  0mm
18:00 66.6 °F /  19.2 °C 51.8 °F /  11 °C 29.83in /  1010hPa West 3.0mph /  4.8km/h 9.0mph /  14.5km/h 59% 0.00in /  0mm
18:10 66.8 °F /  19.3 °C 51.6 °F /  10.9 °C 29.84in /  1010.4hPa West 4.0mph /  6.4km/h 8.0mph /  12.9km/h 58% 0.00in /  0mm
18:15 66.7 °F /  19.3 °C 51.9 °F /  11.1 °C 29.84in /  1010.4hPa WSW 2.0mph /  3.2km/h 8.0mph /  12.9km/h 59% 0.00in /  0mm
18:20 66.6 °F /  19.2 °C 51.8 °F /  11 °C 29.84in /  1010.4hPa West 3.0mph /  4.8km/h 9.0mph /  14.5km/h 59% 0.00in /  0mm
18:25 66.5 °F /  19.2 °C 51.7 °F /  10.9 °C 29.84in /  1010.4hPa West 4.0mph /  6.4km/h 9.0mph /  14.5km/h 59% 0.00in /  0mm
18:35 66.1 °F /  18.9 °C 51.8 °F /  11 °C 29.84in /  1010.4hPa WSW 1.0mph /  1.6km/h 8.0mph /  12.9km/h 60% 0.00in /  0mm
18:40 66.0 °F /  18.9 °C 51.7 °F /  10.9 °C 29.84in /  1010.4hPa Calm   6.0mph /  9.7km/h 60% 0.00in /  0mm
18:50 65.7 °F /  18.7 °C 51.4 °F /  10.8 °C 29.85in /  1010.7hPa SW 3.0mph /  4.8km/h 7.0mph /  11.3km/h 60% 0.00in /  0mm
18:55 65.4 °F /  18.6 °C 51.6 °F /  10.9 °C 29.85in /  1010.7hPa Calm   7.0mph /  11.3km/h 61% 0.00in /  0mm
19:00 65.2 °F /  18.4 °C 51.9 °F /  11.1 °C 29.85in /  1010.7hPa Calm   4.0mph /  6.4km/h 62% 0.00in /  0mm
19:05 65.0 °F /  18.3 °C 51.7 °F /  10.9 °C 29.85in /  1010.7hPa WSW 1.0mph /  1.6km/h 6.0mph /  9.7km/h 62% 0.00in /  0mm
19:10 64.9 °F /  18.3 °C 51.6 °F /  10.9 °C 29.85in /  1010.7hPa Calm   6.0mph /  9.7km/h 62% 0.00in /  0mm
19:20 64.6 °F /  18.1 °C 51.7 °F /  10.9 °C 29.86in /  1011.1hPa Calm   4.0mph /  6.4km/h 63% 0.00in /  0mm
19:25 64.4 °F /  18 °C 52.0 °F /  11.1 °C 29.86in /  1011.1hPa Calm   1.0mph /  1.6km/h 64% 0.00in /  0mm
19:30 64.0 °F /  17.8 °C 51.6 °F /  10.9 °C 29.86in /  1011.1hPa Calm     64% 0.00in /  0mm
19:35 63.9 °F /  17.7 °C 51.9 °F /  11.1 °C 29.86in /  1011.1hPa Calm   3.0mph /  4.8km/h 65% 0.00in /  0mm
19:40 63.8 °F /  17.7 °C 51.8 °F /  11 °C 29.87in /  1011.4hPa WSW 1.0mph /  1.6km/h 7.0mph /  11.3km/h 65% 0.00in /  0mm
19:45 63.9 °F /  17.7 °C 51.5 °F /  10.8 °C 29.86in /  1011.1hPa WSW 1.0mph /  1.6km/h 7.0mph /  11.3km/h 64% 0.00in /  0mm
19:55 63.8 °F /  17.7 °C 51.4 °F /  10.8 °C 29.87in /  1011.4hPa Calm   1.0mph /  1.6km/h 64% 0.00in /  0mm
20:00 63.8 °F /  17.7 °C 51.8 °F /  11 °C 29.87in /  1011.4hPa Calm   1.0mph /  1.6km/h 65% 0.00in /  0mm
20:05 63.8 °F /  17.7 °C 51.8 °F /  11 °C 29.87in /  1011.4hPa Calm   3.0mph /  4.8km/h 65% 0.00in /  0mm
20:15 63.5 °F /  17.5 °C 51.5 °F /  10.8 °C 29.87in /  1011.4hPa Calm     65% 0.00in /  0mm
20:20 63.4 °F /  17.4 °C 51.9 °F /  11.1 °C 29.88in /  1011.7hPa Calm     66% 0.00in /  0mm
20:25 63.3 °F /  17.4 °C 51.8 °F /  11 °C 29.87in /  1011.4hPa Calm     66% 0.00in /  0mm
20:30 63.1 °F /  17.3 °C 51.6 °F /  10.9 °C 29.88in /  1011.7hPa Calm     66% 0.00in /  0mm
20:35 63.1 °F /  17.3 °C 52.0 °F /  11.1 °C 29.88in /  1011.7hPa Calm     67% 0.00in /  0mm
20:40 63.0 °F /  17.2 °C 51.9 °F /  11.1 °C 29.88in /  1011.7hPa SSW 3.0mph /  4.8km/h 4.0mph /  6.4km/h 67% 0.00in /  0mm
20:45 62.9 °F /  17.2 °C 51.8 °F /  11 °C 29.88in /  1011.7hPa SSW 2.0mph /  3.2km/h 7.0mph /  11.3km/h 67% 0.00in /  0mm
20:50 62.8 °F /  17.1 °C 51.7 °F /  10.9 °C 29.88in /  1011.7hPa SSW 1.0mph /  1.6km/h 7.0mph /  11.3km/h 67% 0.00in /  0mm
20:55 62.7 °F /  17.1 °C 51.6 °F /  10.9 °C 29.89in /  1012.1hPa SSW 3.0mph /  4.8km/h 8.0mph /  12.9km/h 67% 0.00in /  0mm
21:00 62.8 °F /  17.1 °C 52.1 °F /  11.2 °C 29.88in /  1011.7hPa SSW 2.0mph /  3.2km/h 8.0mph /  12.9km/h 68% 0.00in /  0mm
21:05 62.7 °F /  17.1 °C 52.0 °F /  11.1 °C 29.88in /  1011.7hPa Calm   4.0mph /  6.4km/h 68% 0.00in /  0mm
21:15 62.5 °F /  16.9 °C 51.8 °F /  11 °C 29.88in /  1011.7hPa South 1.0mph /  1.6km/h 5.0mph /  8km/h 68% 0.00in /  0mm
21:20 62.5 °F /  16.9 °C 52.2 °F /  11.2 °C 29.88in /  1011.7hPa SSW 2.0mph /  3.2km/h 6.0mph /  9.7km/h 69% 0.00in /  0mm
21:25 62.4 °F /  16.9 °C 52.1 °F /  11.2 °C 29.88in /  1011.7hPa SW 3.0mph /  4.8km/h 6.0mph /  9.7km/h 69% 0.00in /  0mm
21:35 62.3 °F /  16.8 °C 52.0 °F /  11.1 °C 29.89in /  1012.1hPa Calm   5.0mph /  8km/h 69% 0.00in /  0mm
21:40 62.2 °F /  16.8 °C 51.9 °F /  11.1 °C 29.89in /  1012.1hPa SSW 1.0mph /  1.6km/h 6.0mph /  9.7km/h 69% 0.00in /  0mm
21:45 62.1 °F /  16.7 °C 52.2 °F /  11.2 °C 29.89in /  1012.1hPa SSW 1.0mph /  1.6km/h 6.0mph /  9.7km/h 70% 0.00in /  0mm
21:55 62.0 °F /  16.7 °C 52.1 °F /  11.2 °C 29.89in /  1012.1hPa SSW 3.0mph /  4.8km/h 7.0mph /  11.3km/h 70% 0.00in /  0mm
22:05 61.8 °F /  16.6 °C 51.9 °F /  11.1 °C 29.89in /  1012.1hPa SSW 1.0mph /  1.6km/h 5.0mph /  8km/h 70% 0.00in /  0mm
22:10 61.8 °F /  16.6 °C 52.3 °F /  11.3 °C 29.89in /  1012.1hPa Calm   5.0mph /  8km/h 71% 0.00in /  0mm
22:20 61.7 °F /  16.5 °C 52.2 °F /  11.2 °C 29.89in /  1012.1hPa SW 1.0mph /  1.6km/h 5.0mph /  8km/h 71% 0.00in /  0mm
22:25 61.6 °F /  16.4 °C 52.1 °F /  11.2 °C 29.89in /  1012.1hPa SSW 2.0mph /  3.2km/h 6.0mph /  9.7km/h 71% 0.00in /  0mm
22:35 61.4 °F /  16.3 °C 52.3 °F /  11.3 °C 29.89in /  1012.1hPa Calm   5.0mph /  8km/h 72% 0.00in /  0mm
22:50 61.4 °F /  16.3 °C 52.7 °F /  11.5 °C 29.89in /  1012.1hPa SSW 2.0mph /  3.2km/h 9.0mph /  14.5km/h 73% 0.00in /  0mm
22:55 61.2 °F /  16.2 °C 52.9 °F /  11.6 °C 29.89in /  1012.1hPa SSW 2.0mph /  3.2km/h 8.0mph /  12.9km/h 74% 0.00in /  0mm
23:00 61.0 °F /  16.1 °C 53.0 °F /  11.7 °C 29.89in /  1012.1hPa SW 2.0mph /  3.2km/h 8.0mph /  12.9km/h 75% 0.00in /  0mm
23:05 60.7 °F /  15.9 °C 52.7 °F /  11.5 °C 29.89in /  1012.1hPa SSW 1.0mph /  1.6km/h 8.0mph /  12.9km/h 75% 0.00in /  0mm
23:10 60.6 °F /  15.9 °C 52.6 °F /  11.4 °C 29.89in /  1012.1hPa SSW 2.0mph /  3.2km/h 8.0mph /  12.9km/h 75% 0.00in /  0mm
23:15 60.6 °F /  15.9 °C 52.6 °F /  11.4 °C 29.89in /  1012.1hPa Calm   7.0mph /  11.3km/h 75% 0.00in /  0mm
23:25 60.6 °F /  15.9 °C 52.6 °F /  11.4 °C 29.88in /  1011.7hPa SSW 2.0mph /  3.2km/h 6.0mph /  9.7km/h 75% 0.00in /  0mm
23:30 60.7 °F /  15.9 °C 52.7 °F /  11.5 °C 29.88in /  1011.7hPa SSW 1.0mph /  1.6km/h 6.0mph /  9.7km/h 75% 0.00in /  0mm
23:35 60.8 °F /  16 °C 52.8 °F /  11.6 °C 29.88in /  1011.7hPa South 1.0mph /  1.6km/h 6.0mph /  9.7km/h 75% 0.00in /  0mm
23:40 60.8 °F /  16 °C 53.6 °F /  12 °C 29.88in /  1011.7hPa Calm   6.0mph /  9.7km/h 77% 0.00in /  0mm
23:50 60.7 °F /  15.9 °C 52.7 °F /  11.5 °C 29.88in /  1011.7hPa Calm   7.0mph /  11.3km/h 75% 0.00in /  0mm
23:55 60.7 °F /  15.9 °C 52.7 °F /  11.5 °C 29.88in /  1011.7hPa Calm   7.0mph /  11.3km/h 75% 0.00in /  0mm
Westford Weather
Compliments of Weather Underground

 
 
Current Radar Loop:

Copyright © WestfordWeather.net 2007-2014. All rights reserved.